sensor_id;sensor_type;location;lat;lon;timestamp;P1;durP1;ratioP1;P2;durP2;ratioP2
36671;SDS011;22663;47.412;9.742;2022-11-23T00:01:45;2.80;;;1.10;;
36671;SDS011;22663;47.412;9.742;2022-11-23T00:04:12;1.85;;;0.70;;
36671;SDS011;22663;47.412;9.742;2022-11-23T00:06:38;1.73;;;0.52;;
36671;SDS011;22663;47.412;9.742;2022-11-23T00:09:04;1.25;;;0.43;;
36671;SDS011;22663;47.412;9.742;2022-11-23T00:11:31;1.58;;;0.25;;
36671;SDS011;22663;47.412;9.742;2022-11-23T00:13:58;1.23;;;0.20;;
36671;SDS011;22663;47.412;9.742;2022-11-23T00:16:25;1.65;;;0.30;;
36671;SDS011;22663;47.412;9.742;2022-11-23T00:18:52;3.13;;;0.40;;
36671;SDS011;22663;47.412;9.742;2022-11-23T00:21:19;1.67;;;0.50;;
36671;SDS011;22663;47.412;9.742;2022-11-23T00:23:46;3.33;;;0.35;;
36671;SDS011;22663;47.412;9.742;2022-11-23T00:26:12;1.58;;;0.43;;
36671;SDS011;22663;47.412;9.742;2022-11-23T00:28:39;0.90;;;0.30;;
36671;SDS011;22663;47.412;9.742;2022-11-23T00:31:06;1.00;;;0.30;;
36671;SDS011;22663;47.412;9.742;2022-11-23T00:33:32;3.22;;;0.73;;
36671;SDS011;22663;47.412;9.742;2022-11-23T00:36:03;1.00;;;0.20;;
36671;SDS011;22663;47.412;9.742;2022-11-23T00:38:29;1.92;;;0.47;;
36671;SDS011;22663;47.412;9.742;2022-11-23T00:40:59;2.00;;;0.80;;
36671;SDS011;22663;47.412;9.742;2022-11-23T00:43:26;3.17;;;0.90;;
36671;SDS011;22663;47.412;9.742;2022-11-23T00:46:09;2.50;;;0.75;;
36671;SDS011;22663;47.412;9.742;2022-11-23T00:48:37;1.95;;;0.68;;
36671;SDS011;22663;47.412;9.742;2022-11-23T00:51:04;1.67;;;0.70;;
36671;SDS011;22663;47.412;9.742;2022-11-23T00:53:31;3.88;;;0.60;;
36671;SDS011;22663;47.412;9.742;2022-11-23T00:55:57;1.60;;;0.57;;
36671;SDS011;22663;47.412;9.742;2022-11-23T00:58:23;1.40;;;0.60;;
36671;SDS011;22663;47.412;9.742;2022-11-23T01:00:49;1.35;;;0.40;;
36671;SDS011;22663;47.412;9.742;2022-11-23T01:03:16;2.05;;;0.38;;
36671;SDS011;22663;47.412;9.742;2022-11-23T01:05:42;1.52;;;0.28;;
36671;SDS011;22663;47.412;9.742;2022-11-23T01:08:09;1.00;;;0.35;;
36671;SDS011;22663;47.412;9.742;2022-11-23T01:10:35;2.60;;;1.00;;
36671;SDS011;22663;47.412;9.742;2022-11-23T01:13:01;3.42;;;1.40;;
36671;SDS011;22663;47.412;9.742;2022-11-23T01:15:27;3.28;;;1.58;;
36671;SDS011;22663;47.412;9.742;2022-11-23T01:17:53;4.82;;;1.88;;
36671;SDS011;22663;47.412;9.742;2022-11-23T01:20:19;5.18;;;1.65;;
36671;SDS011;22663;47.412;9.742;2022-11-23T01:22:45;3.50;;;1.50;;
36671;SDS011;22663;47.412;9.742;2022-11-23T01:25:11;2.65;;;1.23;;
36671;SDS011;22663;47.412;9.742;2022-11-23T01:27:37;4.05;;;1.60;;
36671;SDS011;22663;47.412;9.742;2022-11-23T01:30:03;2.75;;;1.75;;
36671;SDS011;22663;47.412;9.742;2022-11-23T01:32:30;3.03;;;2.08;;
36671;SDS011;22663;47.412;9.742;2022-11-23T01:34:56;2.65;;;1.63;;
36671;SDS011;22663;47.412;9.742;2022-11-23T01:37:22;2.90;;;2.13;;
36671;SDS011;22663;47.412;9.742;2022-11-23T01:39:48;3.00;;;1.95;;
36671;SDS011;22663;47.412;9.742;2022-11-23T01:42:14;3.83;;;1.70;;
36671;SDS011;22663;47.412;9.742;2022-11-23T01:44:40;2.40;;;1.73;;
36671;SDS011;22663;47.412;9.742;2022-11-23T01:47:07;3.50;;;2.05;;
36671;SDS011;22663;47.412;9.742;2022-11-23T01:49:43;4.50;;;2.47;;
36671;SDS011;22663;47.412;9.742;2022-11-23T01:52:11;3.35;;;2.00;;
36671;SDS011;22663;47.412;9.742;2022-11-23T01:54:43;3.75;;;1.92;;
36671;SDS011;22663;47.412;9.742;2022-11-23T01:57:11;3.88;;;2.03;;
36671;SDS011;22663;47.412;9.742;2022-11-23T01:59:38;4.50;;;2.13;;
36671;SDS011;22663;47.412;9.742;2022-11-23T02:02:04;2.55;;;1.70;;
36671;SDS011;22663;47.412;9.742;2022-11-23T02:04:35;3.80;;;1.98;;
36671;SDS011;22663;47.412;9.742;2022-11-23T02:07:03;2.88;;;2.20;;
36671;SDS011;22663;47.412;9.742;2022-11-23T02:09:30;2.65;;;1.80;;
36671;SDS011;22663;47.412;9.742;2022-11-23T02:11:58;4.45;;;2.10;;
36671;SDS011;22663;47.412;9.742;2022-11-23T02:14:25;2.38;;;1.63;;
36671;SDS011;22663;47.412;9.742;2022-11-23T02:16:51;4.78;;;2.17;;
36671;SDS011;22663;47.412;9.742;2022-11-23T02:19:29;3.67;;;1.88;;
36671;SDS011;22663;47.412;9.742;2022-11-23T02:21:57;2.47;;;1.67;;
36671;SDS011;22663;47.412;9.742;2022-11-23T02:24:27;4.57;;;1.83;;
36671;SDS011;22663;47.412;9.742;2022-11-23T02:26:55;3.58;;;2.15;;
36671;SDS011;22663;47.412;9.742;2022-11-23T02:29:23;3.28;;;2.00;;
36671;SDS011;22663;47.412;9.742;2022-11-23T02:31:49;3.30;;;2.13;;
36671;SDS011;22663;47.412;9.742;2022-11-23T02:34:16;3.85;;;1.90;;
36671;SDS011;22663;47.412;9.742;2022-11-23T02:36:45;4.93;;;1.92;;
36671;SDS011;22663;47.412;9.742;2022-11-23T02:41:42;4.78;;;2.50;;
36671;SDS011;22663;47.412;9.742;2022-11-23T02:46:55;4.03;;;1.83;;
36671;SDS011;22663;47.412;9.742;2022-11-23T02:49:22;2.72;;;1.73;;
36671;SDS011;22663;47.412;9.742;2022-11-23T02:51:48;2.28;;;1.30;;
36671;SDS011;22663;47.412;9.742;2022-11-23T02:54:14;3.88;;;1.33;;
36671;SDS011;22663;47.412;9.742;2022-11-23T02:56:40;4.40;;;1.08;;
36671;SDS011;22663;47.412;9.742;2022-11-23T02:59:06;2.72;;;1.45;;
36671;SDS011;22663;47.412;9.742;2022-11-23T03:01:32;3.78;;;1.23;;
36671;SDS011;22663;47.412;9.742;2022-11-23T03:03:59;2.55;;;1.77;;
36671;SDS011;22663;47.412;9.742;2022-11-23T03:06:25;3.83;;;1.30;;
36671;SDS011;22663;47.412;9.742;2022-11-23T03:08:51;2.47;;;1.40;;
36671;SDS011;22663;47.412;9.742;2022-11-23T03:11:17;1.70;;;1.25;;
36671;SDS011;22663;47.412;9.742;2022-11-23T03:13:43;3.08;;;1.60;;
36671;SDS011;22663;47.412;9.742;2022-11-23T03:16:09;2.97;;;1.98;;
36671;SDS011;22663;47.412;9.742;2022-11-23T03:18:35;4.47;;;1.65;;
36671;SDS011;22663;47.412;9.742;2022-11-23T03:21:02;4.82;;;1.90;;
36671;SDS011;22663;47.412;9.742;2022-11-23T03:23:28;3.65;;;1.98;;
36671;SDS011;22663;47.412;9.742;2022-11-23T03:25:55;6.57;;;2.45;;
36671;SDS011;22663;47.412;9.742;2022-11-23T03:28:21;2.17;;;1.85;;
36671;SDS011;22663;47.412;9.742;2022-11-23T03:30:47;4.28;;;2.50;;
36671;SDS011;22663;47.412;9.742;2022-11-23T03:33:13;3.80;;;2.00;;
36671;SDS011;22663;47.412;9.742;2022-11-23T03:35:39;2.38;;;1.40;;
36671;SDS011;22663;47.412;9.742;2022-11-23T03:38:05;2.42;;;1.63;;
36671;SDS011;22663;47.412;9.742;2022-11-23T03:40:31;2.58;;;1.60;;
36671;SDS011;22663;47.412;9.742;2022-11-23T03:42:57;2.45;;;1.60;;
36671;SDS011;22663;47.412;9.742;2022-11-23T03:45:23;5.45;;;2.13;;
36671;SDS011;22663;47.412;9.742;2022-11-23T03:47:49;4.15;;;2.08;;
36671;SDS011;22663;47.412;9.742;2022-11-23T03:50:15;3.67;;;1.90;;
36671;SDS011;22663;47.412;9.742;2022-11-23T03:52:41;2.72;;;2.10;;
36671;SDS011;22663;47.412;9.742;2022-11-23T03:55:07;3.75;;;1.92;;
36671;SDS011;22663;47.412;9.742;2022-11-23T03:57:33;3.08;;;2.20;;
36671;SDS011;22663;47.412;9.742;2022-11-23T03:59:59;6.82;;;2.47;;
36671;SDS011;22663;47.412;9.742;2022-11-23T04:02:25;3.78;;;2.03;;
36671;SDS011;22663;47.412;9.742;2022-11-23T04:04:51;2.70;;;2.00;;
36671;SDS011;22663;47.412;9.742;2022-11-23T04:07:17;5.68;;;2.53;;
36671;SDS011;22663;47.412;9.742;2022-11-23T04:09:44;4.20;;;2.35;;
36671;SDS011;22663;47.412;9.742;2022-11-23T04:12:10;4.22;;;2.17;;
36671;SDS011;22663;47.412;9.742;2022-11-23T04:14:36;3.50;;;2.50;;
36671;SDS011;22663;47.412;9.742;2022-11-23T04:17:02;3.97;;;2.28;;
36671;SDS011;22663;47.412;9.742;2022-11-23T04:19:28;3.20;;;2.45;;
36671;SDS011;22663;47.412;9.742;2022-11-23T04:21:54;7.22;;;3.17;;
36671;SDS011;22663;47.412;9.742;2022-11-23T04:24:20;4.38;;;3.25;;
36671;SDS011;22663;47.412;9.742;2022-11-23T04:26:46;4.40;;;2.65;;
36671;SDS011;22663;47.412;9.742;2022-11-23T04:29:12;3.83;;;2.72;;
36671;SDS011;22663;47.412;9.742;2022-11-23T04:31:38;4.82;;;2.65;;
36671;SDS011;22663;47.412;9.742;2022-11-23T04:34:04;3.33;;;2.70;;
36671;SDS011;22663;47.412;9.742;2022-11-23T04:36:30;3.65;;;2.97;;
36671;SDS011;22663;47.412;9.742;2022-11-23T04:38:57;5.53;;;3.35;;
36671;SDS011;22663;47.412;9.742;2022-11-23T04:41:23;5.82;;;3.35;;
36671;SDS011;22663;47.412;9.742;2022-11-23T04:43:49;5.53;;;3.33;;
36671;SDS011;22663;47.412;9.742;2022-11-23T04:46:16;6.60;;;3.60;;
36671;SDS011;22663;47.412;9.742;2022-11-23T04:48:42;6.57;;;2.95;;
36671;SDS011;22663;47.412;9.742;2022-11-23T04:51:08;5.60;;;3.30;;
36671;SDS011;22663;47.412;9.742;2022-11-23T04:53:34;6.05;;;3.60;;
36671;SDS011;22663;47.412;9.742;2022-11-23T04:56:00;6.80;;;3.25;;
36671;SDS011;22663;47.412;9.742;2022-11-23T04:58:26;6.25;;;3.50;;
36671;SDS011;22663;47.412;9.742;2022-11-23T05:00:52;7.32;;;4.38;;
36671;SDS011;22663;47.412;9.742;2022-11-23T05:03:18;5.78;;;4.18;;
36671;SDS011;22663;47.412;9.742;2022-11-23T05:05:44;4.78;;;3.67;;
36671;SDS011;22663;47.412;9.742;2022-11-23T05:08:10;3.90;;;2.80;;
36671;SDS011;22663;47.412;9.742;2022-11-23T05:10:36;3.83;;;2.30;;
36671;SDS011;22663;47.412;9.742;2022-11-23T05:13:03;4.95;;;2.63;;
36671;SDS011;22663;47.412;9.742;2022-11-23T05:15:29;3.95;;;2.55;;
36671;SDS011;22663;47.412;9.742;2022-11-23T05:18:02;4.40;;;2.70;;
36671;SDS011;22663;47.412;9.742;2022-11-23T05:20:28;5.05;;;2.80;;
36671;SDS011;22663;47.412;9.742;2022-11-23T05:22:55;6.65;;;2.90;;
36671;SDS011;22663;47.412;9.742;2022-11-23T05:25:21;5.10;;;2.30;;
36671;SDS011;22663;47.412;9.742;2022-11-23T05:27:47;4.40;;;1.92;;
36671;SDS011;22663;47.412;9.742;2022-11-23T05:30:13;3.05;;;1.90;;
36671;SDS011;22663;47.412;9.742;2022-11-23T05:32:39;3.83;;;2.65;;
36671;SDS011;22663;47.412;9.742;2022-11-23T05:35:05;4.15;;;1.98;;
36671;SDS011;22663;47.412;9.742;2022-11-23T05:37:32;2.90;;;1.73;;
36671;SDS011;22663;47.412;9.742;2022-11-23T05:39:58;2.40;;;1.65;;
36671;SDS011;22663;47.412;9.742;2022-11-23T05:42:24;6.65;;;2.05;;
36671;SDS011;22663;47.412;9.742;2022-11-23T05:44:50;4.38;;;1.90;;
36671;SDS011;22663;47.412;9.742;2022-11-23T05:47:16;2.45;;;1.05;;
36671;SDS011;22663;47.412;9.742;2022-11-23T05:49:42;1.83;;;1.00;;
36671;SDS011;22663;47.412;9.742;2022-11-23T05:52:08;1.77;;;1.02;;
36671;SDS011;22663;47.412;9.742;2022-11-23T05:54:34;1.33;;;0.60;;
36671;SDS011;22663;47.412;9.742;2022-11-23T05:57:00;1.38;;;0.40;;
36671;SDS011;22663;47.412;9.742;2022-11-23T05:59:26;2.90;;;0.50;;
36671;SDS011;22663;47.412;9.742;2022-11-23T06:01:52;2.20;;;0.45;;
36671;SDS011;22663;47.412;9.742;2022-11-23T06:04:18;1.60;;;0.52;;
36671;SDS011;22663;47.412;9.742;2022-11-23T06:06:45;1.70;;;0.50;;
36671;SDS011;22663;47.412;9.742;2022-11-23T06:09:11;1.90;;;1.10;;
36671;SDS011;22663;47.412;9.742;2022-11-23T06:11:37;1.48;;;0.43;;
36671;SDS011;22663;47.412;9.742;2022-11-23T06:14:03;2.22;;;0.52;;
36671;SDS011;22663;47.412;9.742;2022-11-23T06:16:29;1.80;;;0.40;;
36671;SDS011;22663;47.412;9.742;2022-11-23T06:18:55;0.30;;;0.20;;
36671;SDS011;22663;47.412;9.742;2022-11-23T06:21:21;2.25;;;0.35;;
36671;SDS011;22663;47.412;9.742;2022-11-23T06:23:47;3.35;;;0.50;;
36671;SDS011;22663;47.412;9.742;2022-11-23T06:26:13;0.50;;;0.25;;
36671;SDS011;22663;47.412;9.742;2022-11-23T06:28:39;0.40;;;0.20;;
36671;SDS011;22663;47.412;9.742;2022-11-23T06:31:05;0.68;;;0.25;;
36671;SDS011;22663;47.412;9.742;2022-11-23T06:33:32;2.50;;;0.30;;
36671;SDS011;22663;47.412;9.742;2022-11-23T06:35:59;0.52;;;0.20;;
36671;SDS011;22663;47.412;9.742;2022-11-23T06:38:25;1.10;;;0.40;;
36671;SDS011;22663;47.412;9.742;2022-11-23T06:40:51;1.58;;;0.60;;
36671;SDS011;22663;47.412;9.742;2022-11-23T06:43:17;4.82;;;2.10;;
36671;SDS011;22663;47.412;9.742;2022-11-23T06:45:43;10.73;;;4.10;;
36671;SDS011;22663;47.412;9.742;2022-11-23T06:48:09;11.40;;;6.35;;
36671;SDS011;22663;47.412;9.742;2022-11-23T06:50:36;14.32;;;5.43;;
36671;SDS011;22663;47.412;9.742;2022-11-23T06:53:02;11.35;;;5.18;;
36671;SDS011;22663;47.412;9.742;2022-11-23T06:55:28;11.70;;;5.35;;
36671;SDS011;22663;47.412;9.742;2022-11-23T06:57:55;5.65;;;3.83;;
36671;SDS011;22663;47.412;9.742;2022-11-23T07:00:22;3.67;;;1.75;;
36671;SDS011;22663;47.412;9.742;2022-11-23T07:02:52;9.18;;;1.27;;
36671;SDS011;22663;47.412;9.742;2022-11-23T07:05:18;1.15;;;0.63;;
36671;SDS011;22663;47.412;9.742;2022-11-23T07:07:44;2.17;;;0.80;;
36671;SDS011;22663;47.412;9.742;2022-11-23T07:10:10;1.45;;;0.77;;
36671;SDS011;22663;47.412;9.742;2022-11-23T07:12:37;1.10;;;0.50;;
36671;SDS011;22663;47.412;9.742;2022-11-23T07:15:04;3.83;;;1.00;;
36671;SDS011;22663;47.412;9.742;2022-11-23T07:17:30;2.83;;;0.60;;
36671;SDS011;22663;47.412;9.742;2022-11-23T07:19:56;2.75;;;0.65;;
36671;SDS011;22663;47.412;9.742;2022-11-23T07:22:22;1.77;;;0.50;;
36671;SDS011;22663;47.412;9.742;2022-11-23T07:24:48;1.08;;;0.75;;
36671;SDS011;22663;47.412;9.742;2022-11-23T07:27:17;0.80;;;0.40;;
36671;SDS011;22663;47.412;9.742;2022-11-23T07:29:44;0.70;;;0.40;;
36671;SDS011;22663;47.412;9.742;2022-11-23T07:32:10;2.10;;;0.52;;
36671;SDS011;22663;47.412;9.742;2022-11-23T07:34:38;1.92;;;1.10;;
36671;SDS011;22663;47.412;9.742;2022-11-23T07:37:05;3.50;;;1.38;;
36671;SDS011;22663;47.412;9.742;2022-11-23T07:39:31;2.38;;;1.25;;
36671;SDS011;22663;47.412;9.742;2022-11-23T07:41:57;1.60;;;0.75;;
36671;SDS011;22663;47.412;9.742;2022-11-23T07:44:23;6.43;;;1.85;;
36671;SDS011;22663;47.412;9.742;2022-11-23T07:46:51;3.92;;;2.20;;
36671;SDS011;22663;47.412;9.742;2022-11-23T07:49:17;3.78;;;2.13;;
36671;SDS011;22663;47.412;9.742;2022-11-23T07:51:43;6.40;;;2.90;;
36671;SDS011;22663;47.412;9.742;2022-11-23T07:54:09;3.92;;;1.45;;
36671;SDS011;22663;47.412;9.742;2022-11-23T07:56:35;1.65;;;1.30;;
36671;SDS011;22663;47.412;9.742;2022-11-23T07:59:01;1.95;;;0.85;;
36671;SDS011;22663;47.412;9.742;2022-11-23T08:01:27;2.42;;;0.45;;
36671;SDS011;22663;47.412;9.742;2022-11-23T08:03:55;2.20;;;0.60;;
36671;SDS011;22663;47.412;9.742;2022-11-23T08:06:21;2.85;;;0.70;;
36671;SDS011;22663;47.412;9.742;2022-11-23T08:08:47;2.40;;;0.43;;
36671;SDS011;22663;47.412;9.742;2022-11-23T08:11:13;1.88;;;0.60;;
36671;SDS011;22663;47.412;9.742;2022-11-23T08:13:42;6.40;;;2.42;;
36671;SDS011;22663;47.412;9.742;2022-11-23T08:16:08;8.25;;;4.15;;
36671;SDS011;22663;47.412;9.742;2022-11-23T08:18:34;7.82;;;4.70;;
36671;SDS011;22663;47.412;9.742;2022-11-23T08:21:00;9.57;;;5.50;;
36671;SDS011;22663;47.412;9.742;2022-11-23T08:23:27;13.55;;;6.53;;
36671;SDS011;22663;47.412;9.742;2022-11-23T08:25:53;9.23;;;5.18;;
36671;SDS011;22663;47.412;9.742;2022-11-23T08:28:19;5.63;;;4.03;;
36671;SDS011;22663;47.412;9.742;2022-11-23T08:30:45;4.93;;;3.47;;
36671;SDS011;22663;47.412;9.742;2022-11-23T08:33:12;4.13;;;3.50;;
36671;SDS011;22663;47.412;9.742;2022-11-23T08:35:39;5.47;;;2.90;;
36671;SDS011;22663;47.412;9.742;2022-11-23T08:38:05;5.55;;;2.80;;
36671;SDS011;22663;47.412;9.742;2022-11-23T08:40:32;4.15;;;2.95;;
36671;SDS011;22663;47.412;9.742;2022-11-23T08:42:58;5.03;;;2.97;;
36671;SDS011;22663;47.412;9.742;2022-11-23T08:45:24;4.15;;;2.85;;
36671;SDS011;22663;47.412;9.742;2022-11-23T08:47:50;4.95;;;3.70;;
36671;SDS011;22663;47.412;9.742;2022-11-23T08:50:17;6.40;;;3.83;;
36671;SDS011;22663;47.412;9.742;2022-11-23T08:52:43;6.57;;;4.40;;
36671;SDS011;22663;47.412;9.742;2022-11-23T08:55:09;6.32;;;4.63;;
36671;SDS011;22663;47.412;9.742;2022-11-23T08:57:36;7.72;;;5.07;;
36671;SDS011;22663;47.412;9.742;2022-11-23T09:00:02;9.32;;;5.28;;
36671;SDS011;22663;47.412;9.742;2022-11-23T09:02:29;6.70;;;4.60;;
36671;SDS011;22663;47.412;9.742;2022-11-23T09:04:55;8.00;;;4.40;;
36671;SDS011;22663;47.412;9.742;2022-11-23T09:07:21;7.15;;;4.82;;
36671;SDS011;22663;47.412;9.742;2022-11-23T09:09:47;11.63;;;4.95;;
36671;SDS011;22663;47.412;9.742;2022-11-23T09:12:13;9.23;;;4.45;;
36671;SDS011;22663;47.412;9.742;2022-11-23T09:14:39;5.88;;;4.00;;
36671;SDS011;22663;47.412;9.742;2022-11-23T09:17:05;6.15;;;4.30;;
36671;SDS011;22663;47.412;9.742;2022-11-23T09:19:31;4.65;;;2.60;;
36671;SDS011;22663;47.412;9.742;2022-11-23T09:21:57;4.47;;;3.00;;
36671;SDS011;22663;47.412;9.742;2022-11-23T09:24:24;8.77;;;2.63;;
36671;SDS011;22663;47.412;9.742;2022-11-23T09:26:51;4.57;;;2.42;;
36671;SDS011;22663;47.412;9.742;2022-11-23T09:29:18;2.65;;;2.10;;
36671;SDS011;22663;47.412;9.742;2022-11-23T09:31:44;3.92;;;1.95;;
36671;SDS011;22663;47.412;9.742;2022-11-23T09:34:12;4.40;;;1.80;;
36671;SDS011;22663;47.412;9.742;2022-11-23T09:36:38;2.95;;;2.00;;
36671;SDS011;22663;47.412;9.742;2022-11-23T09:39:04;2.88;;;1.80;;
36671;SDS011;22663;47.412;9.742;2022-11-23T09:44:09;3.30;;;1.92;;
36671;SDS011;22663;47.412;9.742;2022-11-23T09:46:47;3.30;;;1.73;;
36671;SDS011;22663;47.412;9.742;2022-11-23T09:49:19;2.80;;;1.90;;
36671;SDS011;22663;47.412;9.742;2022-11-23T09:51:46;2.83;;;1.80;;
36671;SDS011;22663;47.412;9.742;2022-11-23T09:54:31;3.17;;;1.77;;
36671;SDS011;22663;47.412;9.742;2022-11-23T09:56:57;2.58;;;1.80;;
36671;SDS011;22663;47.412;9.742;2022-11-23T10:04:21;4.60;;;1.70;;
36671;SDS011;22663;47.412;9.742;2022-11-23T10:06:50;3.67;;;1.77;;
36671;SDS011;22663;47.412;9.742;2022-11-23T10:24:37;3.63;;;0.95;;
36671;SDS011;22663;47.412;9.742;2022-11-23T10:27:10;1.40;;;0.47;;
36671;SDS011;22663;47.412;9.742;2022-11-23T10:29:39;0.50;;;0.20;;
36671;SDS011;22663;47.412;9.742;2022-11-23T10:32:06;1.45;;;0.47;;
36671;SDS011;22663;47.412;9.742;2022-11-23T10:37:22;7.60;;;2.35;;
36671;SDS011;22663;47.412;9.742;2022-11-23T10:39:48;6.43;;;2.38;;
36671;SDS011;22663;47.412;9.742;2022-11-23T10:42:35;13.15;;;2.53;;
36671;SDS011;22663;47.412;9.742;2022-11-23T10:45:02;8.15;;;2.20;;
36671;SDS011;22663;47.412;9.742;2022-11-23T10:49:58;5.22;;;2.45;;
36671;SDS011;22663;47.412;9.742;2022-11-23T10:54:55;5.10;;;2.50;;
36671;SDS011;22663;47.412;9.742;2022-11-23T10:57:32;6.22;;;2.58;;
36671;SDS011;22663;47.412;9.742;2022-11-23T11:02:40;5.03;;;2.10;;
36671;SDS011;22663;47.412;9.742;2022-11-23T11:07:51;3.10;;;1.38;;
36671;SDS011;22663;47.412;9.742;2022-11-23T11:13:03;2.55;;;0.90;;
36671;SDS011;22663;47.412;9.742;2022-11-23T11:15:29;3.20;;;1.00;;
36671;SDS011;22663;47.412;9.742;2022-11-23T11:17:56;2.97;;;1.30;;
36671;SDS011;22663;47.412;9.742;2022-11-23T11:20:32;5.50;;;2.97;;
36671;SDS011;22663;47.412;9.742;2022-11-23T11:23:03;2.08;;;1.40;;
36671;SDS011;22663;47.412;9.742;2022-11-23T11:25:40;2.33;;;1.10;;
36671;SDS011;22663;47.412;9.742;2022-11-23T11:28:29;1.90;;;0.90;;
36671;SDS011;22663;47.412;9.742;2022-11-23T11:31:01;2.17;;;1.00;;
36671;SDS011;22663;47.412;9.742;2022-11-23T11:33:30;3.30;;;0.90;;
36671;SDS011;22663;47.412;9.742;2022-11-23T11:35:58;1.67;;;0.65;;
36671;SDS011;22663;47.412;9.742;2022-11-23T11:38:27;1.15;;;0.55;;
36671;SDS011;22663;47.412;9.742;2022-11-23T11:40:57;1.13;;;0.52;;
36671;SDS011;22663;47.412;9.742;2022-11-23T11:46:12;1.73;;;0.70;;
36671;SDS011;22663;47.412;9.742;2022-11-23T11:48:46;1.92;;;1.00;;
36671;SDS011;22663;47.412;9.742;2022-11-23T11:51:25;2.05;;;0.60;;
36671;SDS011;22663;47.412;9.742;2022-11-23T11:56:27;1.30;;;0.45;;
36671;SDS011;22663;47.412;9.742;2022-11-23T11:59:19;2.05;;;0.80;;
36671;SDS011;22663;47.412;9.742;2022-11-23T12:01:43;1.42;;;0.73;;
36671;SDS011;22663;47.412;9.742;2022-11-23T12:04:26;1.77;;;0.80;;
36671;SDS011;22663;47.412;9.742;2022-11-23T12:09:32;1.80;;;0.85;;
36671;SDS011;22663;47.412;9.742;2022-11-23T12:11:59;2.70;;;0.82;;
36671;SDS011;22663;47.412;9.742;2022-11-23T12:14:26;1.25;;;0.70;;
36671;SDS011;22663;47.412;9.742;2022-11-23T12:24:22;2.47;;;1.20;;
36671;SDS011;22663;47.412;9.742;2022-11-23T12:26:56;1.95;;;1.13;;
36671;SDS011;22663;47.412;9.742;2022-11-23T12:34:43;2.55;;;1.27;;
36671;SDS011;22663;47.412;9.742;2022-11-23T12:40:09;2.25;;;1.25;;
36671;SDS011;22663;47.412;9.742;2022-11-23T12:42:41;2.45;;;0.80;;
36671;SDS011;22663;47.412;9.742;2022-11-23T12:45:23;2.33;;;0.90;;
36671;SDS011;22663;47.412;9.742;2022-11-23T12:53:41;1.40;;;0.80;;
36671;SDS011;22663;47.412;9.742;2022-11-23T12:58:53;1.55;;;0.70;;
36671;SDS011;22663;47.412;9.742;2022-11-23T13:21:43;1.10;;;0.50;;
36671;SDS011;22663;47.412;9.742;2022-11-23T13:35:00;0.75;;;0.35;;
36671;SDS011;22663;47.412;9.742;2022-11-23T13:37:26;1.58;;;0.20;;
36671;SDS011;22663;47.412;9.742;2022-11-23T13:42:18;0.77;;;0.22;;
36671;SDS011;22663;47.412;9.742;2022-11-23T13:44:44;1.90;;;0.40;;
36671;SDS011;22663;47.412;9.742;2022-11-23T13:49:49;1.58;;;0.45;;
36671;SDS011;22663;47.412;9.742;2022-11-23T13:55:06;0.88;;;0.63;;
36671;SDS011;22663;47.412;9.742;2022-11-23T13:57:44;3.25;;;0.30;;
36671;SDS011;22663;47.412;9.742;2022-11-23T14:08:13;2.70;;;1.13;;
36671;SDS011;22663;47.412;9.742;2022-11-23T14:10:41;1.02;;;0.73;;
36671;SDS011;22663;47.412;9.742;2022-11-23T14:13:09;3.47;;;0.80;;
36671;SDS011;22663;47.412;9.742;2022-11-23T14:15:39;3.30;;;0.70;;
36671;SDS011;22663;47.412;9.742;2022-11-23T14:34:31;1.33;;;0.63;;
36671;SDS011;22663;47.412;9.742;2022-11-23T14:37:27;1.15;;;0.70;;
36671;SDS011;22663;47.412;9.742;2022-11-23T14:42:42;3.13;;;0.40;;
36671;SDS011;22663;47.412;9.742;2022-11-23T14:45:13;1.10;;;0.30;;
36671;SDS011;22663;47.412;9.742;2022-11-23T14:47:39;2.53;;;0.40;;
36671;SDS011;22663;47.412;9.742;2022-11-23T14:50:15;3.63;;;0.40;;
36671;SDS011;22663;47.412;9.742;2022-11-23T14:52:44;1.02;;;0.30;;
36671;SDS011;22663;47.412;9.742;2022-11-23T14:55:16;0.28;;;0.10;;
36671;SDS011;22663;47.412;9.742;2022-11-23T14:57:43;1.67;;;0.50;;
36671;SDS011;22663;47.412;9.742;2022-11-23T15:00:32;1.35;;;0.50;;
36671;SDS011;22663;47.412;9.742;2022-11-23T15:02:58;1.33;;;0.50;;
36671;SDS011;22663;47.412;9.742;2022-11-23T15:05:27;1.17;;;0.43;;
36671;SDS011;22663;47.412;9.742;2022-11-23T15:07:58;1.50;;;0.40;;
36671;SDS011;22663;47.412;9.742;2022-11-23T15:10:27;0.63;;;0.22;;
36671;SDS011;22663;47.412;9.742;2022-11-23T15:12:55;0.70;;;0.30;;
36671;SDS011;22663;47.412;9.742;2022-11-23T15:15:22;0.45;;;0.10;;
36671;SDS011;22663;47.412;9.742;2022-11-23T15:17:49;1.42;;;0.32;;
36671;SDS011;22663;47.412;9.742;2022-11-23T15:20:15;1.27;;;0.63;;
36671;SDS011;22663;47.412;9.742;2022-11-23T15:22:42;0.93;;;0.70;;
36671;SDS011;22663;47.412;9.742;2022-11-23T15:25:10;1.58;;;0.60;;
36671;SDS011;22663;47.412;9.742;2022-11-23T15:27:38;1.33;;;0.57;;
36671;SDS011;22663;47.412;9.742;2022-11-23T15:30:15;0.25;;;0.22;;
36671;SDS011;22663;47.412;9.742;2022-11-23T15:32:41;0.35;;;0.17;;
36671;SDS011;22663;47.412;9.742;2022-11-23T15:35:13;0.68;;;0.32;;
36671;SDS011;22663;47.412;9.742;2022-11-23T15:37:44;1.40;;;0.10;;
36671;SDS011;22663;47.412;9.742;2022-11-23T15:40:11;0.38;;;0.10;;
36671;SDS011;22663;47.412;9.742;2022-11-23T15:42:37;0.75;;;0.20;;
36671;SDS011;22663;47.412;9.742;2022-11-23T15:45:03;1.77;;;0.30;;
36671;SDS011;22663;47.412;9.742;2022-11-23T15:47:30;0.50;;;0.20;;
36671;SDS011;22663;47.412;9.742;2022-11-23T15:50:08;0.50;;;0.20;;
36671;SDS011;22663;47.412;9.742;2022-11-23T15:52:35;0.70;;;0.30;;
36671;SDS011;22663;47.412;9.742;2022-11-23T15:55:03;1.45;;;0.43;;
36671;SDS011;22663;47.412;9.742;2022-11-23T15:57:30;1.08;;;0.32;;
36671;SDS011;22663;47.412;9.742;2022-11-23T15:59:57;0.90;;;0.43;;
36671;SDS011;22663;47.412;9.742;2022-11-23T16:02:24;1.45;;;0.70;;
36671;SDS011;22663;47.412;9.742;2022-11-23T16:05:15;1.17;;;0.60;;
36671;SDS011;22663;47.412;9.742;2022-11-23T16:07:51;0.98;;;0.45;;
36671;SDS011;22663;47.412;9.742;2022-11-23T16:10:19;0.75;;;0.20;;
36671;SDS011;22663;47.412;9.742;2022-11-23T16:12:52;2.83;;;0.70;;
36671;SDS011;22663;47.412;9.742;2022-11-23T16:18:02;1.73;;;0.82;;
36671;SDS011;22663;47.412;9.742;2022-11-23T16:20:28;13.38;;;1.50;;
36671;SDS011;22663;47.412;9.742;2022-11-23T16:22:54;2.35;;;1.27;;
36671;SDS011;22663;47.412;9.742;2022-11-23T16:25:27;2.13;;;1.00;;
36671;SDS011;22663;47.412;9.742;2022-11-23T16:28:05;2.40;;;0.80;;
36671;SDS011;22663;47.412;9.742;2022-11-23T16:30:39;0.73;;;0.50;;
36671;SDS011;22663;47.412;9.742;2022-11-23T16:33:07;1.13;;;0.73;;
36671;SDS011;22663;47.412;9.742;2022-11-23T16:35:37;1.50;;;0.60;;
36671;SDS011;22663;47.412;9.742;2022-11-23T16:38:04;1.50;;;0.30;;
36671;SDS011;22663;47.412;9.742;2022-11-23T16:40:30;0.43;;;0.40;;
36671;SDS011;22663;47.412;9.742;2022-11-23T16:42:56;0.40;;;0.22;;
36671;SDS011;22663;47.412;9.742;2022-11-23T16:45:23;0.55;;;0.20;;
36671;SDS011;22663;47.412;9.742;2022-11-23T16:47:54;0.25;;;0.20;;
36671;SDS011;22663;47.412;9.742;2022-11-23T16:50:20;1.85;;;0.47;;
36671;SDS011;22663;47.412;9.742;2022-11-23T16:52:46;0.80;;;0.40;;
36671;SDS011;22663;47.412;9.742;2022-11-23T16:55:12;2.45;;;0.70;;
36671;SDS011;22663;47.412;9.742;2022-11-23T16:57:38;2.50;;;0.85;;
36671;SDS011;22663;47.412;9.742;2022-11-23T17:00:06;1.23;;;0.60;;
36671;SDS011;22663;47.412;9.742;2022-11-23T17:02:32;0.55;;;0.28;;
36671;SDS011;22663;47.412;9.742;2022-11-23T17:04:58;1.30;;;0.47;;
36671;SDS011;22663;47.412;9.742;2022-11-23T17:07:24;0.88;;;0.40;;
36671;SDS011;22663;47.412;9.742;2022-11-23T17:09:50;1.38;;;0.68;;
36671;SDS011;22663;47.412;9.742;2022-11-23T17:12:17;0.80;;;0.40;;
36671;SDS011;22663;47.412;9.742;2022-11-23T17:14:45;0.98;;;0.38;;
36671;SDS011;22663;47.412;9.742;2022-11-23T17:17:15;1.00;;;0.40;;